sensor_id;sensor_type;location;lat;lon;timestamp;P1;durP1;ratioP1;P2;durP2;ratioP2
37019;SDS011;22932;52.442;16.896;2022-07-18T00:02:11;14.40;;;5.80;;
37019;SDS011;22932;52.442;16.896;2022-07-18T00:04:40;13.80;;;6.20;;
37019;SDS011;22932;52.442;16.896;2022-07-18T00:07:10;16.40;;;6.50;;
37019;SDS011;22932;52.442;16.896;2022-07-18T00:09:39;14.70;;;7.50;;
37019;SDS011;22932;52.442;16.896;2022-07-18T00:12:09;16.10;;;6.70;;
37019;SDS011;22932;52.442;16.896;2022-07-18T00:14:39;16.70;;;6.10;;
37019;SDS011;22932;52.442;16.896;2022-07-18T00:17:09;16.10;;;5.70;;
37019;SDS011;22932;52.442;16.896;2022-07-18T00:19:39;14.80;;;6.00;;
37019;SDS011;22932;52.442;16.896;2022-07-18T00:22:08;13.10;;;5.70;;
37019;SDS011;22932;52.442;16.896;2022-07-18T00:24:38;11.30;;;5.90;;
37019;SDS011;22932;52.442;16.896;2022-07-18T00:27:07;9.60;;;5.40;;
37019;SDS011;22932;52.442;16.896;2022-07-18T00:29:36;7.90;;;4.40;;
37019;SDS011;22932;52.442;16.896;2022-07-18T00:32:06;11.30;;;5.10;;
37019;SDS011;22932;52.442;16.896;2022-07-18T00:34:36;8.30;;;4.70;;
37019;SDS011;22932;52.442;16.896;2022-07-18T00:37:05;13.50;;;5.10;;
37019;SDS011;22932;52.442;16.896;2022-07-18T00:39:35;8.50;;;4.80;;
37019;SDS011;22932;52.442;16.896;2022-07-18T00:42:04;8.60;;;5.20;;
37019;SDS011;22932;52.442;16.896;2022-07-18T00:44:33;7.00;;;4.70;;
37019;SDS011;22932;52.442;16.896;2022-07-18T00:47:03;8.20;;;5.70;;
37019;SDS011;22932;52.442;16.896;2022-07-18T00:49:32;6.10;;;4.50;;
37019;SDS011;22932;52.442;16.896;2022-07-18T00:52:02;5.40;;;3.80;;
37019;SDS011;22932;52.442;16.896;2022-07-18T00:54:32;4.80;;;3.70;;
37019;SDS011;22932;52.442;16.896;2022-07-18T00:57:01;6.10;;;4.00;;
37019;SDS011;22932;52.442;16.896;2022-07-18T00:59:30;7.60;;;4.20;;
37019;SDS011;22932;52.442;16.896;2022-07-18T01:02:17;5.90;;;3.40;;
37019;SDS011;22932;52.442;16.896;2022-07-18T01:04:46;6.10;;;3.80;;
37019;SDS011;22932;52.442;16.896;2022-07-18T01:07:16;6.80;;;3.30;;
37019;SDS011;22932;52.442;16.896;2022-07-18T01:09:45;5.00;;;3.70;;
37019;SDS011;22932;52.442;16.896;2022-07-18T01:12:14;8.90;;;3.70;;
37019;SDS011;22932;52.442;16.896;2022-07-18T01:14:44;6.20;;;3.30;;
37019;SDS011;22932;52.442;16.896;2022-07-18T01:17:15;8.10;;;3.90;;
37019;SDS011;22932;52.442;16.896;2022-07-18T01:19:46;6.00;;;4.10;;
37019;SDS011;22932;52.442;16.896;2022-07-18T01:22:16;6.70;;;4.30;;
37019;SDS011;22932;52.442;16.896;2022-07-18T01:24:47;4.80;;;3.50;;
37019;SDS011;22932;52.442;16.896;2022-07-18T01:27:17;8.10;;;3.90;;
37019;SDS011;22932;52.442;16.896;2022-07-18T01:29:48;7.30;;;3.50;;
37019;SDS011;22932;52.442;16.896;2022-07-18T01:32:19;4.40;;;3.30;;
37019;SDS011;22932;52.442;16.896;2022-07-18T01:34:49;4.00;;;3.20;;
37019;SDS011;22932;52.442;16.896;2022-07-18T01:37:19;5.00;;;3.40;;
37019;SDS011;22932;52.442;16.896;2022-07-18T01:39:48;5.70;;;3.50;;
37019;SDS011;22932;52.442;16.896;2022-07-18T01:42:17;3.90;;;3.00;;
37019;SDS011;22932;52.442;16.896;2022-07-18T01:44:47;4.30;;;3.60;;
37019;SDS011;22932;52.442;16.896;2022-07-18T01:47:16;4.90;;;3.20;;
37019;SDS011;22932;52.442;16.896;2022-07-18T01:49:46;5.70;;;3.30;;
37019;SDS011;22932;52.442;16.896;2022-07-18T01:52:15;5.30;;;3.30;;
37019;SDS011;22932;52.442;16.896;2022-07-18T01:54:44;4.10;;;2.90;;
37019;SDS011;22932;52.442;16.896;2022-07-18T01:57:13;3.80;;;3.20;;
37019;SDS011;22932;52.442;16.896;2022-07-18T01:59:43;3.60;;;3.10;;
37019;SDS011;22932;52.442;16.896;2022-07-18T02:02:12;6.40;;;3.10;;
37019;SDS011;22932;52.442;16.896;2022-07-18T02:04:41;5.30;;;3.80;;
37019;SDS011;22932;52.442;16.896;2022-07-18T02:07:29;3.10;;;2.80;;
37019;SDS011;22932;52.442;16.896;2022-07-18T02:10:01;4.10;;;3.30;;
37019;SDS011;22932;52.442;16.896;2022-07-18T02:12:32;5.10;;;3.20;;
37019;SDS011;22932;52.442;16.896;2022-07-18T02:15:02;5.20;;;3.20;;
37019;SDS011;22932;52.442;16.896;2022-07-18T02:17:32;5.90;;;2.90;;
37019;SDS011;22932;52.442;16.896;2022-07-18T02:20:01;4.40;;;2.80;;
37019;SDS011;22932;52.442;16.896;2022-07-18T02:22:33;6.20;;;3.30;;
37019;SDS011;22932;52.442;16.896;2022-07-18T02:25:02;4.30;;;3.10;;
37019;SDS011;22932;52.442;16.896;2022-07-18T02:27:33;3.60;;;2.90;;
37019;SDS011;22932;52.442;16.896;2022-07-18T02:30:03;2.90;;;2.60;;
37019;SDS011;22932;52.442;16.896;2022-07-18T02:32:35;3.80;;;2.80;;
37019;SDS011;22932;52.442;16.896;2022-07-18T02:35:06;4.60;;;3.10;;
37019;SDS011;22932;52.442;16.896;2022-07-18T02:37:37;4.50;;;3.00;;
37019;SDS011;22932;52.442;16.896;2022-07-18T02:40:09;3.40;;;2.80;;
37019;SDS011;22932;52.442;16.896;2022-07-18T02:42:39;4.70;;;2.60;;
37019;SDS011;22932;52.442;16.896;2022-07-18T02:45:09;4.40;;;2.80;;
37019;SDS011;22932;52.442;16.896;2022-07-18T02:47:39;4.90;;;3.10;;
37019;SDS011;22932;52.442;16.896;2022-07-18T02:50:08;5.90;;;2.90;;
37019;SDS011;22932;52.442;16.896;2022-07-18T02:52:38;2.70;;;2.50;;
37019;SDS011;22932;52.442;16.896;2022-07-18T02:55:09;3.40;;;3.10;;
37019;SDS011;22932;52.442;16.896;2022-07-18T02:57:40;3.60;;;3.20;;
37019;SDS011;22932;52.442;16.896;2022-07-18T03:00:11;5.60;;;3.20;;
37019;SDS011;22932;52.442;16.896;2022-07-18T03:02:43;4.80;;;3.20;;
37019;SDS011;22932;52.442;16.896;2022-07-18T03:05:13;5.00;;;3.60;;
37019;SDS011;22932;52.442;16.896;2022-07-18T03:07:42;3.30;;;3.00;;
37019;SDS011;22932;52.442;16.896;2022-07-18T03:10:12;3.30;;;2.90;;
37019;SDS011;22932;52.442;16.896;2022-07-18T03:12:41;3.20;;;2.90;;
37019;SDS011;22932;52.442;16.896;2022-07-18T03:15:10;3.40;;;3.10;;
37019;SDS011;22932;52.442;16.896;2022-07-18T03:17:40;2.80;;;2.60;;
37019;SDS011;22932;52.442;16.896;2022-07-18T03:20:10;5.40;;;2.90;;
37019;SDS011;22932;52.442;16.896;2022-07-18T03:22:40;7.60;;;3.40;;
37019;SDS011;22932;52.442;16.896;2022-07-18T03:25:09;3.20;;;2.90;;
37019;SDS011;22932;52.442;16.896;2022-07-18T17:45:30;3.90;;;2.30;;
37019;SDS011;22932;52.442;16.896;2022-07-18T17:48:00;7.10;;;2.80;;
37019;SDS011;22932;52.442;16.896;2022-07-18T17:50:31;3.40;;;2.40;;
37019;SDS011;22932;52.442;16.896;2022-07-18T17:53:01;3.10;;;2.40;;
37019;SDS011;22932;52.442;16.896;2022-07-18T17:55:33;3.50;;;2.30;;
37019;SDS011;22932;52.442;16.896;2022-07-18T17:58:03;2.30;;;2.20;;
37019;SDS011;22932;52.442;16.896;2022-07-18T18:00:32;2.10;;;1.90;;
37019;SDS011;22932;52.442;16.896;2022-07-18T18:03:02;6.20;;;2.90;;
37019;SDS011;22932;52.442;16.896;2022-07-18T18:05:31;3.10;;;2.50;;
37019;SDS011;22932;52.442;16.896;2022-07-18T18:08:01;3.00;;;2.60;;
37019;SDS011;22932;52.442;16.896;2022-07-18T18:10:30;3.00;;;2.70;;
37019;SDS011;22932;52.442;16.896;2022-07-18T18:13:00;3.20;;;2.60;;
37019;SDS011;22932;52.442;16.896;2022-07-18T18:15:29;6.50;;;5.30;;
37019;SDS011;22932;52.442;16.896;2022-07-18T18:17:58;2.20;;;2.00;;
37019;SDS011;22932;52.442;16.896;2022-07-18T18:20:28;2.40;;;2.00;;
37019;SDS011;22932;52.442;16.896;2022-07-18T18:22:57;3.20;;;1.90;;
37019;SDS011;22932;52.442;16.896;2022-07-18T18:25:26;2.20;;;2.00;;
37019;SDS011;22932;52.442;16.896;2022-07-18T18:27:55;2.40;;;1.80;;
37019;SDS011;22932;52.442;16.896;2022-07-18T18:30:25;2.30;;;1.80;;
37019;SDS011;22932;52.442;16.896;2022-07-18T18:32:54;5.30;;;2.20;;
37019;SDS011;22932;52.442;16.896;2022-07-18T18:35:25;2.80;;;1.70;;
37019;SDS011;22932;52.442;16.896;2022-07-18T18:37:55;2.60;;;2.20;;
37019;SDS011;22932;52.442;16.896;2022-07-18T18:40:24;4.40;;;2.00;;
37019;SDS011;22932;52.442;16.896;2022-07-18T18:42:54;2.20;;;2.00;;
37019;SDS011;22932;52.442;16.896;2022-07-18T18:45:23;2.80;;;1.80;;
37019;SDS011;22932;52.442;16.896;2022-07-18T18:47:53;4.60;;;2.40;;
37019;SDS011;22932;52.442;16.896;2022-07-18T18:50:22;3.20;;;1.80;;
37019;SDS011;22932;52.442;16.896;2022-07-18T18:52:51;2.30;;;2.10;;
37019;SDS011;22932;52.442;16.896;2022-07-18T18:55:21;1.80;;;1.70;;
37019;SDS011;22932;52.442;16.896;2022-07-18T18:57:50;2.70;;;2.00;;
37019;SDS011;22932;52.442;16.896;2022-07-18T19:00:20;2.60;;;2.00;;
37019;SDS011;22932;52.442;16.896;2022-07-18T19:02:50;2.30;;;2.10;;
37019;SDS011;22932;52.442;16.896;2022-07-18T19:05:21;2.90;;;2.10;;
37019;SDS011;22932;52.442;16.896;2022-07-18T19:10:19;4.10;;;2.30;;
37019;SDS011;22932;52.442;16.896;2022-07-18T19:12:49;2.90;;;2.20;;
37019;SDS011;22932;52.442;16.896;2022-07-18T19:15:19;1.80;;;1.70;;
37019;SDS011;22932;52.442;16.896;2022-07-18T19:17:49;4.30;;;2.30;;
37019;SDS011;22932;52.442;16.896;2022-07-18T19:20:18;2.50;;;2.30;;
37019;SDS011;22932;52.442;16.896;2022-07-18T19:22:47;3.50;;;2.20;;
37019;SDS011;22932;52.442;16.896;2022-07-18T19:25:17;2.90;;;1.80;;
37019;SDS011;22932;52.442;16.896;2022-07-18T19:27:48;3.00;;;2.70;;
37019;SDS011;22932;52.442;16.896;2022-07-18T19:30:18;2.50;;;2.10;;
37019;SDS011;22932;52.442;16.896;2022-07-18T19:32:48;2.50;;;2.30;;
37019;SDS011;22932;52.442;16.896;2022-07-18T19:35:18;2.90;;;2.30;;
37019;SDS011;22932;52.442;16.896;2022-07-18T19:37:47;3.20;;;2.20;;
37019;SDS011;22932;52.442;16.896;2022-07-18T19:40:18;3.20;;;2.10;;
37019;SDS011;22932;52.442;16.896;2022-07-18T19:42:48;4.10;;;2.40;;
37019;SDS011;22932;52.442;16.896;2022-07-18T19:45:17;3.10;;;2.50;;
37019;SDS011;22932;52.442;16.896;2022-07-18T19:47:47;3.20;;;2.90;;
37019;SDS011;22932;52.442;16.896;2022-07-18T19:50:16;3.60;;;2.90;;
37019;SDS011;22932;52.442;16.896;2022-07-18T19:52:46;3.40;;;3.00;;
37019;SDS011;22932;52.442;16.896;2022-07-18T19:55:15;2.50;;;2.20;;
37019;SDS011;22932;52.442;16.896;2022-07-18T19:57:45;3.60;;;2.80;;
37019;SDS011;22932;52.442;16.896;2022-07-18T20:00:14;5.10;;;2.60;;
37019;SDS011;22932;52.442;16.896;2022-07-18T20:02:45;4.10;;;2.70;;
37019;SDS011;22932;52.442;16.896;2022-07-18T20:05:15;4.50;;;3.20;;
37019;SDS011;22932;52.442;16.896;2022-07-18T20:07:44;3.10;;;2.50;;
37019;SDS011;22932;52.442;16.896;2022-07-18T20:10:14;4.10;;;2.60;;
37019;SDS011;22932;52.442;16.896;2022-07-18T20:12:43;4.90;;;3.10;;
37019;SDS011;22932;52.442;16.896;2022-07-18T20:15:12;4.70;;;2.70;;
37019;SDS011;22932;52.442;16.896;2022-07-18T20:17:42;3.80;;;2.90;;
37019;SDS011;22932;52.442;16.896;2022-07-18T20:20:11;6.00;;;2.90;;
37019;SDS011;22932;52.442;16.896;2022-07-18T20:22:41;5.20;;;2.80;;
37019;SDS011;22932;52.442;16.896;2022-07-18T20:25:10;4.50;;;3.40;;
37019;SDS011;22932;52.442;16.896;2022-07-18T20:27:40;5.40;;;3.40;;
37019;SDS011;22932;52.442;16.896;2022-07-18T20:30:10;4.10;;;2.90;;
37019;SDS011;22932;52.442;16.896;2022-07-18T20:32:41;6.00;;;3.10;;
37019;SDS011;22932;52.442;16.896;2022-07-18T20:37:40;6.30;;;2.80;;
37019;SDS011;22932;52.442;16.896;2022-07-18T20:42:40;3.00;;;2.70;;
37019;SDS011;22932;52.442;16.896;2022-07-18T20:45:09;4.10;;;3.10;;
37019;SDS011;22932;52.442;16.896;2022-07-18T20:47:39;3.50;;;3.20;;
37019;SDS011;22932;52.442;16.896;2022-07-18T20:50:09;4.20;;;3.20;;
37019;SDS011;22932;52.442;16.896;2022-07-18T20:52:38;3.50;;;2.90;;
37019;SDS011;22932;52.442;16.896;2022-07-18T20:55:08;3.90;;;3.20;;
37019;SDS011;22932;52.442;16.896;2022-07-18T20:57:37;3.60;;;3.30;;
37019;SDS011;22932;52.442;16.896;2022-07-18T21:00:08;3.00;;;2.80;;
37019;SDS011;22932;52.442;16.896;2022-07-18T21:02:38;3.30;;;3.00;;
37019;SDS011;22932;52.442;16.896;2022-07-18T21:05:08;7.30;;;2.80;;
37019;SDS011;22932;52.442;16.896;2022-07-18T21:07:37;5.40;;;3.60;;
37019;SDS011;22932;52.442;16.896;2022-07-18T21:10:07;5.20;;;3.60;;
37019;SDS011;22932;52.442;16.896;2022-07-18T21:12:38;4.80;;;3.20;;
37019;SDS011;22932;52.442;16.896;2022-07-18T21:15:08;4.40;;;3.10;;
37019;SDS011;22932;52.442;16.896;2022-07-18T21:17:38;4.30;;;3.30;;
37019;SDS011;22932;52.442;16.896;2022-07-18T21:20:11;3.90;;;3.60;;
37019;SDS011;22932;52.442;16.896;2022-07-18T21:22:42;3.50;;;3.20;;
37019;SDS011;22932;52.442;16.896;2022-07-18T21:27:40;4.80;;;3.30;;
37019;SDS011;22932;52.442;16.896;2022-07-18T21:30:11;3.70;;;3.30;;
37019;SDS011;22932;52.442;16.896;2022-07-18T21:32:42;4.20;;;3.70;;
37019;SDS011;22932;52.442;16.896;2022-07-18T21:35:11;6.20;;;5.10;;
37019;SDS011;22932;52.442;16.896;2022-07-18T21:37:42;6.00;;;4.60;;
37019;SDS011;22932;52.442;16.896;2022-07-18T21:40:11;6.40;;;3.90;;
37019;SDS011;22932;52.442;16.896;2022-07-18T21:42:42;5.60;;;4.60;;
37019;SDS011;22932;52.442;16.896;2022-07-18T21:45:12;9.10;;;5.90;;
37019;SDS011;22932;52.442;16.896;2022-07-18T21:47:43;8.10;;;5.90;;
37019;SDS011;22932;52.442;16.896;2022-07-18T21:50:12;4.50;;;4.10;;
37019;SDS011;22932;52.442;16.896;2022-07-18T21:52:41;4.00;;;3.70;;
37019;SDS011;22932;52.442;16.896;2022-07-18T21:55:11;5.10;;;4.40;;
37019;SDS011;22932;52.442;16.896;2022-07-18T21:57:41;5.10;;;4.50;;
37019;SDS011;22932;52.442;16.896;2022-07-18T22:00:11;6.20;;;4.30;;
37019;SDS011;22932;52.442;16.896;2022-07-18T22:02:42;4.70;;;4.30;;
37019;SDS011;22932;52.442;16.896;2022-07-18T22:05:11;5.10;;;4.50;;
37019;SDS011;22932;52.442;16.896;2022-07-18T22:07:40;5.80;;;4.40;;
37019;SDS011;22932;52.442;16.896;2022-07-18T22:10:10;8.20;;;6.40;;
37019;SDS011;22932;52.442;16.896;2022-07-18T22:12:40;6.00;;;5.40;;
37019;SDS011;22932;52.442;16.896;2022-07-18T22:15:10;5.70;;;4.80;;
37019;SDS011;22932;52.442;16.896;2022-07-18T22:17:40;8.10;;;4.80;;
37019;SDS011;22932;52.442;16.896;2022-07-18T22:20:11;5.30;;;4.70;;
37019;SDS011;22932;52.442;16.896;2022-07-18T22:22:42;5.00;;;4.50;;
37019;SDS011;22932;52.442;16.896;2022-07-18T22:25:12;5.20;;;4.60;;
37019;SDS011;22932;52.442;16.896;2022-07-18T22:27:41;4.60;;;4.20;;
37019;SDS011;22932;52.442;16.896;2022-07-18T22:30:11;5.50;;;4.70;;
37019;SDS011;22932;52.442;16.896;2022-07-18T22:32:41;6.40;;;4.30;;
37019;SDS011;22932;52.442;16.896;2022-07-18T22:35:10;5.30;;;4.90;;
37019;SDS011;22932;52.442;16.896;2022-07-18T22:37:40;5.70;;;5.00;;
37019;SDS011;22932;52.442;16.896;2022-07-18T22:40:10;5.80;;;4.70;;
37019;SDS011;22932;52.442;16.896;2022-07-18T22:42:41;6.20;;;4.40;;
37019;SDS011;22932;52.442;16.896;2022-07-18T22:45:11;5.30;;;4.40;;
37019;SDS011;22932;52.442;16.896;2022-07-18T22:47:40;7.00;;;5.20;;
37019;SDS011;22932;52.442;16.896;2022-07-18T22:50:10;5.50;;;4.70;;
37019;SDS011;22932;52.442;16.896;2022-07-18T22:52:40;5.80;;;4.20;;
37019;SDS011;22932;52.442;16.896;2022-07-18T22:55:09;4.80;;;4.40;;
37019;SDS011;22932;52.442;16.896;2022-07-18T22:57:38;4.80;;;4.20;;
37019;SDS011;22932;52.442;16.896;2022-07-18T23:00:09;5.60;;;4.10;;
37019;SDS011;22932;52.442;16.896;2022-07-18T23:02:40;5.70;;;4.70;;
37019;SDS011;22932;52.442;16.896;2022-07-18T23:05:10;6.30;;;4.50;;
37019;SDS011;22932;52.442;16.896;2022-07-18T23:07:52;5.30;;;4.80;;
37019;SDS011;22932;52.442;16.896;2022-07-18T23:10:23;5.00;;;4.50;;
37019;SDS011;22932;52.442;16.896;2022-07-18T23:12:55;5.10;;;4.40;;
37019;SDS011;22932;52.442;16.896;2022-07-18T23:15:25;6.40;;;4.10;;
37019;SDS011;22932;52.442;16.896;2022-07-18T23:17:55;5.50;;;5.00;;
